sensor_id;sensor_type;location;lat;lon;timestamp;temperature;humidity
36292;DHT22;22327;51.208;6.418;2023-09-19T00:00:35;19.20;99.90
36292;DHT22;22327;51.208;6.418;2023-09-19T00:03:36;19.10;99.90
36292;DHT22;22327;51.208;6.418;2023-09-19T00:06:42;19.20;99.90
36292;DHT22;22327;51.208;6.418;2023-09-19T00:09:44;19.10;99.90
36292;DHT22;22327;51.208;6.418;2023-09-19T00:12:45;19.10;99.90
36292;DHT22;22327;51.208;6.418;2023-09-19T00:15:47;19.10;99.90
36292;DHT22;22327;51.208;6.418;2023-09-19T00:18:51;19.10;99.90
36292;DHT22;22327;51.208;6.418;2023-09-19T00:21:52;19.10;99.90
36292;DHT22;22327;51.208;6.418;2023-09-19T00:24:53;19.10;99.90
36292;DHT22;22327;51.208;6.418;2023-09-19T00:27:55;19.10;99.90
36292;DHT22;22327;51.208;6.418;2023-09-19T00:30:56;19.10;99.90
36292;DHT22;22327;51.208;6.418;2023-09-19T00:33:57;19.00;99.90
36292;DHT22;22327;51.208;6.418;2023-09-19T00:37:00;19.00;99.90
36292;DHT22;22327;51.208;6.418;2023-09-19T00:40:00;19.00;99.90
36292;DHT22;22327;51.208;6.418;2023-09-19T00:43:01;19.00;99.90
36292;DHT22;22327;51.208;6.418;2023-09-19T00:46:01;19.10;99.90
36292;DHT22;22327;51.208;6.418;2023-09-19T00:49:04;19.00;99.90
36292;DHT22;22327;51.208;6.418;2023-09-19T00:52:08;18.90;99.90
36292;DHT22;22327;51.208;6.418;2023-09-19T00:55:11;18.90;99.90
36292;DHT22;22327;51.208;6.418;2023-09-19T00:58:15;18.90;99.90
36292;DHT22;22327;51.208;6.418;2023-09-19T01:01:16;18.80;99.90
36292;DHT22;22327;51.208;6.418;2023-09-19T01:04:17;18.70;99.90
36292;DHT22;22327;51.208;6.418;2023-09-19T01:07:18;18.70;99.90
36292;DHT22;22327;51.208;6.418;2023-09-19T01:10:20;18.70;99.90
36292;DHT22;22327;51.208;6.418;2023-09-19T01:13:31;18.70;99.90
36292;DHT22;22327;51.208;6.418;2023-09-19T01:23:33;18.50;99.90
36292;DHT22;22327;51.208;6.418;2023-09-19T01:30:14;18.50;99.90
36292;DHT22;22327;51.208;6.418;2023-09-19T01:33:15;18.40;99.90
36292;DHT22;22327;51.208;6.418;2023-09-19T01:36:15;18.40;99.90
36292;DHT22;22327;51.208;6.418;2023-09-19T01:39:16;18.40;99.90
36292;DHT22;22327;51.208;6.418;2023-09-19T01:42:31;18.40;99.90
36292;DHT22;22327;51.208;6.418;2023-09-19T01:52:10;18.50;99.90
36292;DHT22;22327;51.208;6.418;2023-09-19T01:55:14;18.50;99.90
36292;DHT22;22327;51.208;6.418;2023-09-19T01:58:33;18.40;99.90
36292;DHT22;22327;51.208;6.418;2023-09-19T02:01:34;18.40;99.90
36292;DHT22;22327;51.208;6.418;2023-09-19T02:04:38;18.40;99.90
36292;DHT22;22327;51.208;6.418;2023-09-19T02:07:38;18.40;99.90
36292;DHT22;22327;51.208;6.418;2023-09-19T02:10:40;18.40;99.90
36292;DHT22;22327;51.208;6.418;2023-09-19T02:13:41;18.40;99.90
36292;DHT22;22327;51.208;6.418;2023-09-19T02:16:42;18.40;99.90
36292;DHT22;22327;51.208;6.418;2023-09-19T02:19:42;18.40;99.90
36292;DHT22;22327;51.208;6.418;2023-09-19T02:22:43;18.40;99.90
36292;DHT22;22327;51.208;6.418;2023-09-19T02:25:52;18.40;99.90
36292;DHT22;22327;51.208;6.418;2023-09-19T02:28:53;18.30;99.90
36292;DHT22;22327;51.208;6.418;2023-09-19T02:31:54;18.30;99.90
36292;DHT22;22327;51.208;6.418;2023-09-19T02:34:56;18.30;99.90
36292;DHT22;22327;51.208;6.418;2023-09-19T02:37:58;18.30;99.90
36292;DHT22;22327;51.208;6.418;2023-09-19T02:40:59;18.40;99.90
36292;DHT22;22327;51.208;6.418;2023-09-19T02:43:59;18.40;99.90
36292;DHT22;22327;51.208;6.418;2023-09-19T02:47:00;18.40;99.90
36292;DHT22;22327;51.208;6.418;2023-09-19T02:50:00;18.40;99.90
36292;DHT22;22327;51.208;6.418;2023-09-19T02:53:01;18.40;99.90
36292;DHT22;22327;51.208;6.418;2023-09-19T02:56:02;18.40;99.90
36292;DHT22;22327;51.208;6.418;2023-09-19T02:59:04;18.40;99.80
36292;DHT22;22327;51.208;6.418;2023-09-19T03:02:06;18.30;99.80
36292;DHT22;22327;51.208;6.418;2023-09-19T03:05:07;18.30;99.80
36292;DHT22;22327;51.208;6.418;2023-09-19T03:08:07;18.20;99.90
36292;DHT22;22327;51.208;6.418;2023-09-19T03:11:08;18.30;99.90
36292;DHT22;22327;51.208;6.418;2023-09-19T03:14:11;18.30;99.90
36292;DHT22;22327;51.208;6.418;2023-09-19T03:17:12;18.40;99.90
36292;DHT22;22327;51.208;6.418;2023-09-19T03:20:15;18.40;99.90
36292;DHT22;22327;51.208;6.418;2023-09-19T03:23:19;18.40;99.90
36292;DHT22;22327;51.208;6.418;2023-09-19T03:26:19;18.30;99.90
36292;DHT22;22327;51.208;6.418;2023-09-19T03:29:20;18.40;99.90
36292;DHT22;22327;51.208;6.418;2023-09-19T03:32:20;18.40;99.90
36292;DHT22;22327;51.208;6.418;2023-09-19T03:35:21;18.40;99.90
36292;DHT22;22327;51.208;6.418;2023-09-19T03:38:22;18.40;99.90
36292;DHT22;22327;51.208;6.418;2023-09-19T03:41:22;18.30;99.90
36292;DHT22;22327;51.208;6.418;2023-09-19T03:44:23;18.30;99.90
36292;DHT22;22327;51.208;6.418;2023-09-19T03:47:23;18.30;99.90
36292;DHT22;22327;51.208;6.418;2023-09-19T03:50:24;18.30;99.90
36292;DHT22;22327;51.208;6.418;2023-09-19T03:53:25;18.30;99.90
36292;DHT22;22327;51.208;6.418;2023-09-19T03:56:25;18.30;99.90
36292;DHT22;22327;51.208;6.418;2023-09-19T03:59:26;18.30;99.90
36292;DHT22;22327;51.208;6.418;2023-09-19T04:02:27;18.30;99.90
36292;DHT22;22327;51.208;6.418;2023-09-19T04:05:33;18.30;99.90
36292;DHT22;22327;51.208;6.418;2023-09-19T04:08:34;18.30;99.90
36292;DHT22;22327;51.208;6.418;2023-09-19T04:11:34;18.30;99.90
36292;DHT22;22327;51.208;6.418;2023-09-19T04:14:35;18.30;99.90
36292;DHT22;22327;51.208;6.418;2023-09-19T04:17:35;18.30;99.90
36292;DHT22;22327;51.208;6.418;2023-09-19T04:20:36;18.40;99.90
36292;DHT22;22327;51.208;6.418;2023-09-19T04:23:36;18.30;99.90
36292;DHT22;22327;51.208;6.418;2023-09-19T04:26:37;18.40;99.90
36292;DHT22;22327;51.208;6.418;2023-09-19T04:29:37;18.40;99.90
36292;DHT22;22327;51.208;6.418;2023-09-19T04:32:40;18.40;99.90
36292;DHT22;22327;51.208;6.418;2023-09-19T04:35:41;18.40;99.90
36292;DHT22;22327;51.208;6.418;2023-09-19T04:38:45;18.50;99.90
36292;DHT22;22327;51.208;6.418;2023-09-19T04:41:45;18.40;99.90
36292;DHT22;22327;51.208;6.418;2023-09-19T04:44:48;18.50;99.90
36292;DHT22;22327;51.208;6.418;2023-09-19T04:47:49;18.50;99.90
36292;DHT22;22327;51.208;6.418;2023-09-19T04:50:50;18.50;99.90
36292;DHT22;22327;51.208;6.418;2023-09-19T04:53:51;18.50;99.90
36292;DHT22;22327;51.208;6.418;2023-09-19T04:56:51;18.50;99.70
36292;DHT22;22327;51.208;6.418;2023-09-19T04:59:52;18.40;99.70
36292;DHT22;22327;51.208;6.418;2023-09-19T05:02:55;18.50;99.90
36292;DHT22;22327;51.208;6.418;2023-09-19T05:05:58;18.50;99.30
36292;DHT22;22327;51.208;6.418;2023-09-19T05:08:59;18.50;99.60
36292;DHT22;22327;51.208;6.418;2023-09-19T05:12:00;18.40;99.40
36292;DHT22;22327;51.208;6.418;2023-09-19T05:15:02;18.40;99.10
36292;DHT22;22327;51.208;6.418;2023-09-19T05:18:03;18.30;99.00
36292;DHT22;22327;51.208;6.418;2023-09-19T05:21:04;18.30;99.30
36292;DHT22;22327;51.208;6.418;2023-09-19T05:24:05;18.30;99.30
36292;DHT22;22327;51.208;6.418;2023-09-19T05:27:06;18.40;98.80
36292;DHT22;22327;51.208;6.418;2023-09-19T05:30:07;18.40;98.70
36292;DHT22;22327;51.208;6.418;2023-09-19T05:33:08;18.40;98.70
36292;DHT22;22327;51.208;6.418;2023-09-19T05:36:09;18.40;98.70
36292;DHT22;22327;51.208;6.418;2023-09-19T05:39:12;18.40;98.80
36292;DHT22;22327;51.208;6.418;2023-09-19T05:42:13;18.50;98.70
36292;DHT22;22327;51.208;6.418;2023-09-19T05:45:14;18.60;98.60
36292;DHT22;22327;51.208;6.418;2023-09-19T05:48:19;18.60;98.60
36292;DHT22;22327;51.208;6.418;2023-09-19T05:51:21;18.60;98.30
36292;DHT22;22327;51.208;6.418;2023-09-19T05:54:22;18.60;98.40
36292;DHT22;22327;51.208;6.418;2023-09-19T05:57:23;18.60;98.60
36292;DHT22;22327;51.208;6.418;2023-09-19T06:00:25;18.70;99.00
36292;DHT22;22327;51.208;6.418;2023-09-19T06:03:27;18.70;99.20
36292;DHT22;22327;51.208;6.418;2023-09-19T06:06:29;18.80;98.80
36292;DHT22;22327;51.208;6.418;2023-09-19T06:09:30;18.90;98.70
36292;DHT22;22327;51.208;6.418;2023-09-19T06:12:32;18.90;98.70
36292;DHT22;22327;51.208;6.418;2023-09-19T06:15:37;19.00;98.50
36292;DHT22;22327;51.208;6.418;2023-09-19T06:18:38;19.00;98.70
36292;DHT22;22327;51.208;6.418;2023-09-19T06:21:38;19.00;98.60
36292;DHT22;22327;51.208;6.418;2023-09-19T06:24:39;19.00;98.20
36292;DHT22;22327;51.208;6.418;2023-09-19T06:27:40;19.00;98.50
36292;DHT22;22327;51.208;6.418;2023-09-19T06:30:44;19.10;98.30
36292;DHT22;22327;51.208;6.418;2023-09-19T06:33:44;19.10;98.50
36292;DHT22;22327;51.208;6.418;2023-09-19T06:36:45;19.20;98.50
36292;DHT22;22327;51.208;6.418;2023-09-19T06:39:46;19.30;98.40
36292;DHT22;22327;51.208;6.418;2023-09-19T06:42:51;19.50;98.10
36292;DHT22;22327;51.208;6.418;2023-09-19T06:45:53;19.60;97.70
36292;DHT22;22327;51.208;6.418;2023-09-19T06:48:55;19.60;97.60
36292;DHT22;22327;51.208;6.418;2023-09-19T06:51:55;19.60;97.70
36292;DHT22;22327;51.208;6.418;2023-09-19T06:54:57;19.70;97.60
36292;DHT22;22327;51.208;6.418;2023-09-19T06:57:58;19.80;97.20
36292;DHT22;22327;51.208;6.418;2023-09-19T07:00:59;19.90;97.30
36292;DHT22;22327;51.208;6.418;2023-09-19T07:03:59;20.00;97.00
36292;DHT22;22327;51.208;6.418;2023-09-19T07:07:00;20.10;97.00
36292;DHT22;22327;51.208;6.418;2023-09-19T07:10:01;20.20;96.40
36292;DHT22;22327;51.208;6.418;2023-09-19T07:13:04;20.20;96.10
36292;DHT22;22327;51.208;6.418;2023-09-19T07:16:06;20.30;96.30
36292;DHT22;22327;51.208;6.418;2023-09-19T07:19:11;20.40;95.80
36292;DHT22;22327;51.208;6.418;2023-09-19T07:22:11;20.50;95.70
36292;DHT22;22327;51.208;6.418;2023-09-19T07:25:12;20.60;96.80
36292;DHT22;22327;51.208;6.418;2023-09-19T07:28:14;20.80;95.90
36292;DHT22;22327;51.208;6.418;2023-09-19T07:31:15;21.10;95.10
36292;DHT22;22327;51.208;6.418;2023-09-19T07:34:17;21.30;94.60
36292;DHT22;22327;51.208;6.418;2023-09-19T07:37:18;21.40;93.80
36292;DHT22;22327;51.208;6.418;2023-09-19T07:40:19;21.50;93.50
36292;DHT22;22327;51.208;6.418;2023-09-19T07:43:20;21.50;93.20
36292;DHT22;22327;51.208;6.418;2023-09-19T07:46:21;21.60;93.20
36292;DHT22;22327;51.208;6.418;2023-09-19T07:49:22;21.50;93.10
36292;DHT22;22327;51.208;6.418;2023-09-19T07:52:23;21.40;93.40
36292;DHT22;22327;51.208;6.418;2023-09-19T07:55:24;21.40;93.20
36292;DHT22;22327;51.208;6.418;2023-09-19T07:58:25;21.50;93.50
36292;DHT22;22327;51.208;6.418;2023-09-19T08:01:26;21.60;93.30
36292;DHT22;22327;51.208;6.418;2023-09-19T08:04:28;21.70;92.80
36292;DHT22;22327;51.208;6.418;2023-09-19T08:07:28;21.80;92.50
36292;DHT22;22327;51.208;6.418;2023-09-19T08:10:29;21.80;92.40
36292;DHT22;22327;51.208;6.418;2023-09-19T08:13:35;22.00;92.50
36292;DHT22;22327;51.208;6.418;2023-09-19T08:16:36;22.20;92.20
36292;DHT22;22327;51.208;6.418;2023-09-19T08:19:36;22.40;92.10
36292;DHT22;22327;51.208;6.418;2023-09-19T08:22:37;22.70;91.60
36292;DHT22;22327;51.208;6.418;2023-09-19T08:25:37;22.90;90.70
36292;DHT22;22327;51.208;6.418;2023-09-19T08:28:40;23.20;90.50
36292;DHT22;22327;51.208;6.418;2023-09-19T08:31:43;23.60;88.80
36292;DHT22;22327;51.208;6.418;2023-09-19T08:34:44;23.60;87.40
36292;DHT22;22327;51.208;6.418;2023-09-19T08:37:44;23.80;86.80
36292;DHT22;22327;51.208;6.418;2023-09-19T08:40:48;24.10;85.70
36292;DHT22;22327;51.208;6.418;2023-09-19T08:43:49;24.30;85.50
36292;DHT22;22327;51.208;6.418;2023-09-19T08:46:55;24.50;84.40
36292;DHT22;22327;51.208;6.418;2023-09-19T08:50:04;24.70;81.70
36292;DHT22;22327;51.208;6.418;2023-09-19T08:54:20;24.90;81.60
36292;DHT22;22327;51.208;6.418;2023-09-19T08:56:46;25.00;81.30
36292;DHT22;22327;51.208;6.418;2023-09-19T08:59:49;25.20;80.70
36292;DHT22;22327;51.208;6.418;2023-09-19T09:02:50;25.40;79.60
36292;DHT22;22327;51.208;6.418;2023-09-19T09:05:51;25.80;77.00
36292;DHT22;22327;51.208;6.418;2023-09-19T09:08:52;26.10;77.00
36292;DHT22;22327;51.208;6.418;2023-09-19T09:11:53;26.40;73.50
36292;DHT22;22327;51.208;6.418;2023-09-19T09:14:56;26.40;73.50
36292;DHT22;22327;51.208;6.418;2023-09-19T09:17:57;26.20;72.50
36292;DHT22;22327;51.208;6.418;2023-09-19T09:20:58;26.10;71.50
36292;DHT22;22327;51.208;6.418;2023-09-19T09:23:59;25.80;71.50
36292;DHT22;22327;51.208;6.418;2023-09-19T09:27:04;25.30;73.20
36292;DHT22;22327;51.208;6.418;2023-09-19T09:30:34;25.00;74.70
36292;DHT22;22327;51.208;6.418;2023-09-19T09:33:35;24.90;76.50
36292;DHT22;22327;51.208;6.418;2023-09-19T09:36:39;24.50;74.10
36292;DHT22;22327;51.208;6.418;2023-09-19T09:39:49;24.20;76.40
36292;DHT22;22327;51.208;6.418;2023-09-19T09:42:51;24.00;76.30
36292;DHT22;22327;51.208;6.418;2023-09-19T09:46:14;23.90;78.20
36292;DHT22;22327;51.208;6.418;2023-09-19T09:49:25;24.00;79.90
36292;DHT22;22327;51.208;6.418;2023-09-19T09:52:29;24.20;77.50
36292;DHT22;22327;51.208;6.418;2023-09-19T09:59:00;24.10;77.10
36292;DHT22;22327;51.208;6.418;2023-09-19T10:02:02;24.10;77.50
36292;DHT22;22327;51.208;6.418;2023-09-19T10:05:21;24.10;76.30
36292;DHT22;22327;51.208;6.418;2023-09-19T10:08:27;23.90;76.50
36292;DHT22;22327;51.208;6.418;2023-09-19T10:11:31;23.70;76.90
36292;DHT22;22327;51.208;6.418;2023-09-19T10:14:35;23.50;77.20
36292;DHT22;22327;51.208;6.418;2023-09-19T10:17:44;23.30;78.20
36292;DHT22;22327;51.208;6.418;2023-09-19T10:20:46;23.30;79.50
36292;DHT22;22327;51.208;6.418;2023-09-19T10:23:49;23.50;80.40
36292;DHT22;22327;51.208;6.418;2023-09-19T10:26:53;23.50;77.40
36292;DHT22;22327;51.208;6.418;2023-09-19T10:29:55;23.40;77.50
36292;DHT22;22327;51.208;6.418;2023-09-19T10:33:02;23.50;77.80
36292;DHT22;22327;51.208;6.418;2023-09-19T10:36:05;23.40;78.90
36292;DHT22;22327;51.208;6.418;2023-09-19T10:39:06;23.50;79.30
36292;DHT22;22327;51.208;6.418;2023-09-19T10:42:11;23.50;78.20
36292;DHT22;22327;51.208;6.418;2023-09-19T10:45:16;23.40;78.50
36292;DHT22;22327;51.208;6.418;2023-09-19T10:48:19;23.30;78.70
36292;DHT22;22327;51.208;6.418;2023-09-19T10:51:22;23.20;78.30
36292;DHT22;22327;51.208;6.418;2023-09-19T10:54:32;23.20;78.30
36292;DHT22;22327;51.208;6.418;2023-09-19T10:57:34;23.10;78.60
36292;DHT22;22327;51.208;6.418;2023-09-19T11:00:51;23.10;79.10
36292;DHT22;22327;51.208;6.418;2023-09-19T11:07:22;23.30;77.60
36292;DHT22;22327;51.208;6.418;2023-09-19T11:10:51;23.30;77.40
36292;DHT22;22327;51.208;6.418;2023-09-19T11:14:13;23.40;76.30
36292;DHT22;22327;51.208;6.418;2023-09-19T11:20:22;23.40;74.70
36292;DHT22;22327;51.208;6.418;2023-09-19T11:23:22;23.40;74.50
36292;DHT22;22327;51.208;6.418;2023-09-19T11:26:40;23.50;75.00
36292;DHT22;22327;51.208;6.418;2023-09-19T11:29:47;23.50;74.10
36292;DHT22;22327;51.208;6.418;2023-09-19T11:36:35;23.50;73.20
36292;DHT22;22327;51.208;6.418;2023-09-19T11:39:37;23.40;73.50
36292;DHT22;22327;51.208;6.418;2023-09-19T11:42:46;23.30;72.20
36292;DHT22;22327;51.208;6.418;2023-09-19T11:49:08;23.40;72.60
36292;DHT22;22327;51.208;6.418;2023-09-19T11:52:21;23.40;72.00
36292;DHT22;22327;51.208;6.418;2023-09-19T11:55:25;23.50;72.20
36292;DHT22;22327;51.208;6.418;2023-09-19T11:58:30;23.40;71.30
36292;DHT22;22327;51.208;6.418;2023-09-19T12:01:32;23.40;71.80
36292;DHT22;22327;51.208;6.418;2023-09-19T12:04:42;23.50;72.70
36292;DHT22;22327;51.208;6.418;2023-09-19T12:07:49;23.60;73.50
36292;DHT22;22327;51.208;6.418;2023-09-19T12:10:50;23.70;72.20
36292;DHT22;22327;51.208;6.418;2023-09-19T12:13:55;23.70;72.00
36292;DHT22;22327;51.208;6.418;2023-09-19T12:16:59;23.70;71.40
36292;DHT22;22327;51.208;6.418;2023-09-19T12:20:01;23.70;71.50
36292;DHT22;22327;51.208;6.418;2023-09-19T12:23:13;23.70;72.20
36292;DHT22;22327;51.208;6.418;2023-09-19T12:26:14;23.70;70.20
36292;DHT22;22327;51.208;6.418;2023-09-19T12:29:20;23.70;70.10
36292;DHT22;22327;51.208;6.418;2023-09-19T12:32:36;23.70;70.70
36292;DHT22;22327;51.208;6.418;2023-09-19T12:35:40;23.70;70.40
36292;DHT22;22327;51.208;6.418;2023-09-19T12:38:48;23.60;71.70
36292;DHT22;22327;51.208;6.418;2023-09-19T12:41:49;23.80;71.40
36292;DHT22;22327;51.208;6.418;2023-09-19T12:44:51;23.80;70.50
36292;DHT22;22327;51.208;6.418;2023-09-19T12:51:23;23.90;70.50
36292;DHT22;22327;51.208;6.418;2023-09-19T12:54:38;23.90;71.20
36292;DHT22;22327;51.208;6.418;2023-09-19T12:57:40;24.10;71.00
36292;DHT22;22327;51.208;6.418;2023-09-19T13:00:44;24.30;70.30
36292;DHT22;22327;51.208;6.418;2023-09-19T13:03:45;24.50;69.60
36292;DHT22;22327;51.208;6.418;2023-09-19T13:06:47;24.50;68.70
36292;DHT22;22327;51.208;6.418;2023-09-19T13:10:05;24.60;68.70
36292;DHT22;22327;51.208;6.418;2023-09-19T13:13:23;24.60;68.60
36292;DHT22;22327;51.208;6.418;2023-09-19T13:16:28;24.60;68.10
36292;DHT22;22327;51.208;6.418;2023-09-19T13:22:46;24.70;68.70
36292;DHT22;22327;51.208;6.418;2023-09-19T13:25:51;24.70;68.80
36292;DHT22;22327;51.208;6.418;2023-09-19T13:28:52;24.70;68.20
36292;DHT22;22327;51.208;6.418;2023-09-19T13:31:52;24.70;68.50
36292;DHT22;22327;51.208;6.418;2023-09-19T13:34:53;24.50;68.40
36292;DHT22;22327;51.208;6.418;2023-09-19T13:37:53;24.40;68.90
36292;DHT22;22327;51.208;6.418;2023-09-19T13:40:54;24.30;69.00
36292;DHT22;22327;51.208;6.418;2023-09-19T13:43:55;24.30;69.90
36292;DHT22;22327;51.208;6.418;2023-09-19T13:46:57;24.40;69.70
36292;DHT22;22327;51.208;6.418;2023-09-19T13:49:58;24.50;69.20
36292;DHT22;22327;51.208;6.418;2023-09-19T13:52:58;24.60;69.50
36292;DHT22;22327;51.208;6.418;2023-09-19T13:56:00;24.70;69.40
36292;DHT22;22327;51.208;6.418;2023-09-19T13:59:01;24.70;69.60
36292;DHT22;22327;51.208;6.418;2023-09-19T14:02:01;24.80;70.20
36292;DHT22;22327;51.208;6.418;2023-09-19T14:05:06;24.90;69.30
36292;DHT22;22327;51.208;6.418;2023-09-19T14:08:07;24.80;68.80
36292;DHT22;22327;51.208;6.418;2023-09-19T14:11:08;24.80;69.20
36292;DHT22;22327;51.208;6.418;2023-09-19T14:14:09;24.70;69.10
36292;DHT22;22327;51.208;6.418;2023-09-19T14:17:09;24.70;69.60
36292;DHT22;22327;51.208;6.418;2023-09-19T14:20:10;24.70;69.50
36292;DHT22;22327;51.208;6.418;2023-09-19T14:23:11;24.70;68.70
36292;DHT22;22327;51.208;6.418;2023-09-19T14:26:12;24.60;68.70
36292;DHT22;22327;51.208;6.418;2023-09-19T14:29:13;24.60;69.50
36292;DHT22;22327;51.208;6.418;2023-09-19T14:32:14;24.60;69.10
36292;DHT22;22327;51.208;6.418;2023-09-19T14:35:15;24.70;69.70
36292;DHT22;22327;51.208;6.418;2023-09-19T14:38:16;24.60;69.30
36292;DHT22;22327;51.208;6.418;2023-09-19T14:41:17;24.50;68.60
36292;DHT22;22327;51.208;6.418;2023-09-19T14:44:17;24.40;69.80
36292;DHT22;22327;51.208;6.418;2023-09-19T14:47:18;24.30;70.10
36292;DHT22;22327;51.208;6.418;2023-09-19T14:50:19;24.30;70.00
36292;DHT22;22327;51.208;6.418;2023-09-19T14:53:19;24.20;70.20
36292;DHT22;22327;51.208;6.418;2023-09-19T14:56:20;24.10;69.90
36292;DHT22;22327;51.208;6.418;2023-09-19T14:59:21;24.00;71.00
36292;DHT22;22327;51.208;6.418;2023-09-19T15:02:22;23.90;70.30
36292;DHT22;22327;51.208;6.418;2023-09-19T15:05:22;23.90;70.00
36292;DHT22;22327;51.208;6.418;2023-09-19T15:08:23;23.90;70.20
36292;DHT22;22327;51.208;6.418;2023-09-19T15:11:23;23.90;70.60
36292;DHT22;22327;51.208;6.418;2023-09-19T15:14:24;23.80;70.40
36292;DHT22;22327;51.208;6.418;2023-09-19T15:17:25;23.90;71.20
36292;DHT22;22327;51.208;6.418;2023-09-19T15:20:26;23.90;70.70
36292;DHT22;22327;51.208;6.418;2023-09-19T15:23:27;23.90;71.40
36292;DHT22;22327;51.208;6.418;2023-09-19T15:26:29;23.90;71.10
36292;DHT22;22327;51.208;6.418;2023-09-19T15:29:30;24.00;71.20
36292;DHT22;22327;51.208;6.418;2023-09-19T15:32:31;23.90;71.70
36292;DHT22;22327;51.208;6.418;2023-09-19T15:35:32;24.00;71.30
36292;DHT22;22327;51.208;6.418;2023-09-19T15:39:01;23.90;70.50
36292;DHT22;22327;51.208;6.418;2023-09-19T15:42:02;23.90;71.90
36292;DHT22;22327;51.208;6.418;2023-09-19T15:45:03;23.80;71.80
36292;DHT22;22327;51.208;6.418;2023-09-19T15:48:04;23.80;72.50
36292;DHT22;22327;51.208;6.418;2023-09-19T15:51:05;23.90;72.80
36292;DHT22;22327;51.208;6.418;2023-09-19T15:54:11;23.90;72.70
36292;DHT22;22327;51.208;6.418;2023-09-19T15:57:14;24.00;72.90
36292;DHT22;22327;51.208;6.418;2023-09-19T16:00:14;24.00;71.60
36292;DHT22;22327;51.208;6.418;2023-09-19T16:03:17;23.90;72.10
36292;DHT22;22327;51.208;6.418;2023-09-19T16:06:20;23.90;72.60
36292;DHT22;22327;51.208;6.418;2023-09-19T16:09:23;24.00;73.00
36292;DHT22;22327;51.208;6.418;2023-09-19T16:12:24;23.90;72.20
36292;DHT22;22327;51.208;6.418;2023-09-19T16:15:24;23.90;72.20
36292;DHT22;22327;51.208;6.418;2023-09-19T16:18:25;23.90;72.70
36292;DHT22;22327;51.208;6.418;2023-09-19T16:21:25;23.70;72.30
36292;DHT22;22327;51.208;6.418;2023-09-19T16:24:27;23.70;72.80
36292;DHT22;22327;51.208;6.418;2023-09-19T16:27:28;23.60;73.20
36292;DHT22;22327;51.208;6.418;2023-09-19T16:30:32;23.60;73.50
36292;DHT22;22327;51.208;6.418;2023-09-19T16:33:34;23.60;74.10
36292;DHT22;22327;51.208;6.418;2023-09-19T16:36:35;23.50;73.20
36292;DHT22;22327;51.208;6.418;2023-09-19T16:39:35;23.50;73.60
36292;DHT22;22327;51.208;6.418;2023-09-19T16:42:37;23.50;73.40
36292;DHT22;22327;51.208;6.418;2023-09-19T16:45:38;23.50;74.00
36292;DHT22;22327;51.208;6.418;2023-09-19T16:48:41;23.40;74.20
36292;DHT22;22327;51.208;6.418;2023-09-19T16:51:42;23.30;74.50
36292;DHT22;22327;51.208;6.418;2023-09-19T16:54:44;23.20;74.50
36292;DHT22;22327;51.208;6.418;2023-09-19T16:57:44;23.20;75.00
36292;DHT22;22327;51.208;6.418;2023-09-19T17:00:46;23.10;74.90
36292;DHT22;22327;51.208;6.418;2023-09-19T17:03:47;23.00;75.30
36292;DHT22;22327;51.208;6.418;2023-09-19T17:06:48;23.10;75.50
36292;DHT22;22327;51.208;6.418;2023-09-19T17:09:48;23.00;76.00
36292;DHT22;22327;51.208;6.418;2023-09-19T17:12:51;23.00;76.40
36292;DHT22;22327;51.208;6.418;2023-09-19T17:16:00;22.90;75.90
36292;DHT22;22327;51.208;6.418;2023-09-19T17:19:00;22.90;76.20
36292;DHT22;22327;51.208;6.418;2023-09-19T17:22:01;22.90;76.30
36292;DHT22;22327;51.208;6.418;2023-09-19T17:25:01;22.80;76.40
36292;DHT22;22327;51.208;6.418;2023-09-19T17:28:03;22.90;76.50
36292;DHT22;22327;51.208;6.418;2023-09-19T17:31:14;22.90;76.80
36292;DHT22;22327;51.208;6.418;2023-09-19T17:34:16;22.80;76.50
36292;DHT22;22327;51.208;6.418;2023-09-19T17:37:17;22.80;76.80
36292;DHT22;22327;51.208;6.418;2023-09-19T17:40:20;22.80;76.90
36292;DHT22;22327;51.208;6.418;2023-09-19T17:43:20;22.80;77.00
36292;DHT22;22327;51.208;6.418;2023-09-19T17:46:21;22.80;76.90
36292;DHT22;22327;51.208;6.418;2023-09-19T17:49:23;22.80;77.20
36292;DHT22;22327;51.208;6.418;2023-09-19T17:52:23;22.80;76.60
36292;DHT22;22327;51.208;6.418;2023-09-19T17:55:24;22.80;77.20
36292;DHT22;22327;51.208;6.418;2023-09-19T17:58:25;22.70;77.20
36292;DHT22;22327;51.208;6.418;2023-09-19T18:01:27;22.70;77.20
36292;DHT22;22327;51.208;6.418;2023-09-19T18:04:28;22.60;77.60
36292;DHT22;22327;51.208;6.418;2023-09-19T18:07:29;22.60;77.60
36292;DHT22;22327;51.208;6.418;2023-09-19T18:10:30;22.50;78.10
36292;DHT22;22327;51.208;6.418;2023-09-19T18:13:33;22.50;78.30
36292;DHT22;22327;51.208;6.418;2023-09-19T18:16:33;22.50;78.50
36292;DHT22;22327;51.208;6.418;2023-09-19T18:19:34;22.50;78.30
36292;DHT22;22327;51.208;6.418;2023-09-19T18:22:35;22.50;78.40
36292;DHT22;22327;51.208;6.418;2023-09-19T18:25:35;22.50;79.00
36292;DHT22;22327;51.208;6.418;2023-09-19T18:28:37;22.50;78.80
36292;DHT22;22327;51.208;6.418;2023-09-19T18:31:39;22.40;79.20
36292;DHT22;22327;51.208;6.418;2023-09-19T18:34:39;22.50;79.50
36292;DHT22;22327;51.208;6.418;2023-09-19T18:37:41;22.50;79.50
36292;DHT22;22327;51.208;6.418;2023-09-19T18:40:46;22.40;79.00
36292;DHT22;22327;51.208;6.418;2023-09-19T18:43:46;22.40;79.00
36292;DHT22;22327;51.208;6.418;2023-09-19T18:46:47;22.40;78.80
36292;DHT22;22327;51.208;6.418;2023-09-19T18:49:48;22.40;79.70
36292;DHT22;22327;51.208;6.418;2023-09-19T18:52:49;22.40;79.80
36292;DHT22;22327;51.208;6.418;2023-09-19T18:56:03;22.40;79.80
36292;DHT22;22327;51.208;6.418;2023-09-19T18:59:03;22.40;79.30
36292;DHT22;22327;51.208;6.418;2023-09-19T19:02:04;22.40;79.70
36292;DHT22;22327;51.208;6.418;2023-09-19T19:05:06;22.30;79.80
36292;DHT22;22327;51.208;6.418;2023-09-19T19:08:09;22.30;79.80
36292;DHT22;22327;51.208;6.418;2023-09-19T19:11:11;22.20;80.30
36292;DHT22;22327;51.208;6.418;2023-09-19T19:14:12;22.20;80.30
36292;DHT22;22327;51.208;6.418;2023-09-19T19:17:12;22.20;80.30
36292;DHT22;22327;51.208;6.418;2023-09-19T19:20:16;22.30;81.00
36292;DHT22;22327;51.208;6.418;2023-09-19T19:23:19;22.20;82.20
36292;DHT22;22327;51.208;6.418;2023-09-19T19:26:23;22.30;82.30
36292;DHT22;22327;51.208;6.418;2023-09-19T19:29:24;22.40;81.80
36292;DHT22;22327;51.208;6.418;2023-09-19T19:32:24;22.50;82.40
36292;DHT22;22327;51.208;6.418;2023-09-19T19:35:26;22.60;80.40
36292;DHT22;22327;51.208;6.418;2023-09-19T19:38:29;22.60;80.10
36292;DHT22;22327;51.208;6.418;2023-09-19T19:41:29;22.70;80.00
36292;DHT22;22327;51.208;6.418;2023-09-19T19:44:30;22.80;79.50
36292;DHT22;22327;51.208;6.418;2023-09-19T19:47:31;22.80;80.00
36292;DHT22;22327;51.208;6.418;2023-09-19T19:50:38;22.80;79.40
36292;DHT22;22327;51.208;6.418;2023-09-19T19:53:38;22.90;79.10